Time,TemperatureF,DewpointF,PressureIn,WindDirection,WindDirectionDegrees,WindSpeedMPH,WindSpeedGustMPH,Humidity,HourlyPrecipIn,Conditions,Clouds,dailyrainin,SolarRadiationWatts/m^2,SoftwareType,DateUTC
2013-02-27 00:01:00,41.0,29.0,-100.00,SW,235,1.0,6.0,63,-99.99,,,0.00,0.000000,,2013-02-27 08:01:00,
2013-02-27 00:22:00,39.0,28.0,-100.00,SW,216,4.0,8.0,65,0.00,,,0.00,0.000000,,2013-02-27 08:22:00,
2013-02-27 00:32:00,39.0,28.0,-100.00,SW,216,4.0,8.0,65,0.00,,,0.00,0.000000,,2013-02-27 08:32:00,
2013-02-27 00:42:00,39.0,28.0,-100.00,SW,216,4.0,8.0,65,0.00,,,0.00,0.000000,,2013-02-27 08:42:00,
2013-02-27 00:52:00,39.0,28.0,-100.00,SW,216,4.0,8.0,65,0.00,,,0.00,0.000000,,2013-02-27 08:52:00,
2013-02-27 01:01:00,39.0,28.0,-100.00,SW,216,4.0,8.0,65,0.00,,,0.00,0.000000,,2013-02-27 09:01:00,
2013-02-27 01:32:00,40.0,27.0,-100.00,SSW,208,4.0,8.0,60,-99.99,,,-99.99,0.000000,,2013-02-27 09:32:00,
2013-02-27 01:42:00,40.0,27.0,-100.00,SSW,208,4.0,8.0,60,-99.99,,,-99.99,0.000000,,2013-02-27 09:42:00,
2013-02-27 01:52:00,40.0,27.0,-100.00,SSW,208,4.0,8.0,60,-99.99,,,-99.99,0.000000,,2013-02-27 09:52:00,
2013-02-27 02:01:00,40.0,27.0,-100.00,SSW,208,4.0,8.0,60,-99.99,,,-99.99,0.000000,,2013-02-27 10:01:00,
2013-02-27 02:32:00,39.0,27.0,-100.00,SSW,205,4.0,8.0,61,0.00,,,0.00,0.000000,,2013-02-27 10:32:00,
2013-02-27 02:42:00,39.0,27.0,-100.00,SSW,205,4.0,8.0,61,0.00,,,0.00,0.000000,,2013-02-27 10:42:00,
2013-02-27 02:52:00,39.0,27.0,-100.00,SSW,205,4.0,8.0,61,0.00,,,0.00,0.000000,,2013-02-27 10:52:00,
2013-02-27 03:01:00,39.0,27.0,-100.00,SSW,205,4.0,8.0,61,0.00,,,0.00,0.000000,,2013-02-27 11:01:00,
2013-02-27 03:32:00,39.0,25.0,-100.00,SW,215,4.0,9.0,57,0.00,,,0.00,0.000000,,2013-02-27 11:32:00,
2013-02-27 03:42:00,39.0,25.0,-100.00,SW,215,4.0,9.0,57,0.00,,,0.00,0.000000,,2013-02-27 11:42:00,
2013-02-27 03:52:00,39.0,25.0,-100.00,SW,215,4.0,9.0,57,0.00,,,0.00,0.000000,,2013-02-27 11:52:00,
2013-02-27 04:01:00,39.0,25.0,-100.00,SW,215,4.0,9.0,57,0.00,,,0.00,0.000000,,2013-02-27 12:01:00,
2013-02-27 04:33:00,39.0,25.0,-100.00,SSW,206,4.0,8.0,56,0.00,,,0.00,0.000000,,2013-02-27 12:33:00,
2013-02-27 04:42:00,39.0,25.0,-100.00,SSW,206,4.0,8.0,56,0.00,,,0.00,0.000000,,2013-02-27 12:42:00,
2013-02-27 04:52:00,39.0,25.0,-100.00,SSW,206,4.0,8.0,56,0.00,,,0.00,0.000000,,2013-02-27 12:52:00,
2013-02-27 05:02:00,39.0,25.0,-100.00,SSW,206,4.0,8.0,56,0.00,,,0.00,0.000000,,2013-02-27 13:02:00,
2013-02-27 05:32:00,39.0,25.0,-100.00,SSW,205,4.0,8.0,56,0.00,,,0.00,0.000000,,2013-02-27 13:32:00,
2013-02-27 05:42:00,39.0,25.0,-100.00,SSW,205,4.0,8.0,56,0.00,,,0.00,0.000000,,2013-02-27 13:42:00,
2013-02-27 05:52:00,39.0,25.0,-100.00,SSW,205,4.0,8.0,56,0.00,,,0.00,0.000000,,2013-02-27 13:52:00,
2013-02-27 06:02:00,39.0,25.0,-100.00,SSW,205,4.0,8.0,56,0.00,,,0.00,0.000000,,2013-02-27 14:02:00,
2013-02-27 06:22:00,39.0,24.0,-100.00,SW,216,5.0,9.0,55,0.00,,,0.00,0.000000,,2013-02-27 14:22:00,
2013-02-27 06:32:00,39.0,24.0,-100.00,SW,216,5.0,9.0,55,0.00,,,0.00,0.000000,,2013-02-27 14:32:00,
2013-02-27 06:42:00,39.0,24.0,-100.00,SW,216,5.0,9.0,55,0.00,,,0.00,0.000000,,2013-02-27 14:42:00,
2013-02-27 06:52:00,39.0,24.0,-100.00,SW,216,5.0,9.0,55,0.00,,,0.00,0.000000,,2013-02-27 14:52:00,
2013-02-27 07:01:00,39.0,24.0,-100.00,SW,216,5.0,9.0,55,0.00,,,0.00,0.000000,,2013-02-27 15:01:00,
2013-02-27 07:32:00,39.0,23.0,-100.00,SSW,211,4.0,9.0,53,0.00,,,0.00,5.000000,,2013-02-27 15:32:00,
2013-02-27 07:42:00,39.0,23.0,-100.00,SSW,211,4.0,9.0,53,0.00,,,0.00,5.000000,,2013-02-27 15:42:00,
2013-02-27 07:52:00,39.0,23.0,-100.00,SSW,211,4.0,9.0,53,0.00,,,0.00,5.000000,,2013-02-27 15:52:00,
2013-02-27 08:01:00,39.0,23.0,-100.00,SSW,211,4.0,9.0,53,0.00,,,0.00,5.000000,,2013-02-27 16:01:00,
2013-02-27 08:22:00,44.0,24.0,-100.00,SSW,213,4.0,12.0,45,0.00,,,0.00,137.000000,,2013-02-27 16:22:00,
2013-02-27 08:32:00,44.0,24.0,-100.00,SSW,213,4.0,12.0,45,0.00,,,0.00,137.000000,,2013-02-27 16:32:00,
2013-02-27 08:42:00,44.0,24.0,-100.00,SSW,213,4.0,12.0,45,0.00,,,0.00,137.000000,,2013-02-27 16:42:00,
2013-02-27 08:52:00,44.0,24.0,-100.00,SSW,213,4.0,12.0,45,0.00,,,0.00,137.000000,,2013-02-27 16:52:00,
2013-02-27 09:01:00,44.0,24.0,-100.00,SSW,213,4.0,12.0,45,0.00,,,0.00,137.000000,,2013-02-27 17:01:00,
2013-02-27 09:21:00,51.0,26.0,-100.00,SSW,206,4.0,10.0,37,0.00,,,0.00,341.000000,,2013-02-27 17:21:00,
2013-02-27 09:32:00,51.0,26.0,-100.00,SSW,206,4.0,10.0,37,0.00,,,0.00,341.000000,,2013-02-27 17:32:00,
2013-02-27 09:42:00,51.0,26.0,-100.00,SSW,206,4.0,10.0,37,0.00,,,0.00,341.000000,,2013-02-27 17:42:00,
2013-02-27 09:52:00,51.0,26.0,-100.00,SSW,206,4.0,10.0,37,0.00,,,0.00,341.000000,,2013-02-27 17:52:00,
2013-02-27 10:01:00,51.0,26.0,-100.00,SSW,206,4.0,10.0,37,0.00,,,0.00,341.000000,,2013-02-27 18:01:00,
2013-02-27 10:32:00,61.0,29.0,-100.00,SSW,203,3.0,9.0,29,0.00,,,0.00,520.000000,,2013-02-27 18:32:00,
2013-02-27 10:42:00,61.0,29.0,-100.00,SSW,203,3.0,9.0,29,0.00,,,0.00,520.000000,,2013-02-27 18:42:00,
2013-02-27 10:52:00,61.0,29.0,-100.00,SSW,203,3.0,9.0,29,0.00,,,0.00,520.000000,,2013-02-27 18:52:00,
2013-02-27 11:01:00,61.0,29.0,-100.00,SSW,203,3.0,9.0,29,0.00,,,0.00,520.000000,,2013-02-27 19:01:00,
2013-02-27 11:32:00,72.0,29.0,-100.00,SE,140,1.0,4.0,20,0.00,,,0.00,660.000000,,2013-02-27 19:32:00,
2013-02-27 11:42:00,72.0,29.0,-100.00,SE,140,1.0,4.0,20,0.00,,,0.00,660.000000,,2013-02-27 19:42:00,
2013-02-27 11:52:00,72.0,29.0,-100.00,SE,140,1.0,4.0,20,0.00,,,0.00,660.000000,,2013-02-27 19:52:00,
2013-02-27 12:01:00,72.0,29.0,-100.00,SE,140,1.0,4.0,20,0.00,,,0.00,660.000000,,2013-02-27 20:01:00,
2013-02-27 12:22:00,73.0,13.0,-100.00,NE,54,5.0,10.0,10,-99.99,,,-99.99,707.000000,,2013-02-27 20:22:00,
2013-02-27 12:32:00,73.0,13.0,-100.00,NE,54,5.0,10.0,10,-99.99,,,-99.99,707.000000,,2013-02-27 20:32:00,
2013-02-27 12:42:00,73.0,13.0,-100.00,NE,54,5.0,10.0,10,-99.99,,,-99.99,707.000000,,2013-02-27 20:42:00,
2013-02-27 12:52:00,73.0,13.0,-100.00,NE,54,5.0,10.0,10,-99.99,,,-99.99,707.000000,,2013-02-27 20:52:00,
2013-02-27 13:01:00,73.0,13.0,-100.00,NE,54,5.0,10.0,10,-99.99,,,-99.99,707.000000,,2013-02-27 21:01:00,
2013-02-27 13:32:00,74.0,12.0,-100.00,ENE,70,4.0,11.0,9,0.00,,,0.00,604.000000,,2013-02-27 21:32:00,
2013-02-27 13:42:00,74.0,12.0,-100.00,ENE,70,4.0,11.0,9,0.00,,,0.00,604.000000,,2013-02-27 21:42:00,
2013-02-27 13:52:00,74.0,12.0,-100.00,ENE,70,4.0,11.0,9,0.00,,,0.00,604.000000,,2013-02-27 21:52:00,
2013-02-27 14:01:00,74.0,12.0,-100.00,ENE,70,4.0,11.0,9,0.00,,,0.00,604.000000,,2013-02-27 22:01:00,
2013-02-27 14:32:00,75.0,15.0,-100.00,ENE,67,4.0,14.0,10,-99.99,,,0.00,727.000000,,2013-02-27 22:32:00,
2013-02-27 14:42:00,75.0,15.0,-100.00,ENE,67,4.0,14.0,10,-99.99,,,0.00,727.000000,,2013-02-27 22:42:00,
2013-02-27 14:52:00,75.0,15.0,-100.00,ENE,67,4.0,14.0,10,-99.99,,,0.00,727.000000,,2013-02-27 22:52:00,
2013-02-27 15:01:00,75.0,15.0,-100.00,ENE,67,4.0,14.0,10,-99.99,,,0.00,727.000000,,2013-02-27 23:01:00,
2013-02-27 15:32:00,75.0,15.0,-100.00,East,93,4.0,12.0,10,-99.99,,,0.00,617.000000,,2013-02-27 23:32:00,
2013-02-27 15:42:00,75.0,15.0,-100.00,East,93,4.0,12.0,10,-99.99,,,0.00,617.000000,,2013-02-27 23:42:00,
2013-02-27 15:53:00,75.0,15.0,-100.00,East,93,4.0,12.0,10,-99.99,,,0.00,617.000000,,2013-02-27 23:53:00,
2013-02-27 16:01:00,75.0,15.0,-100.00,East,93,4.0,12.0,10,-99.99,,,0.00,617.000000,,2013-02-28 00:01:00,
2013-02-27 16:22:00,75.0,17.0,-100.00,ESE,122,3.0,11.0,11,0.00,,,0.00,453.000000,,2013-02-28 00:22:00,
2013-02-27 16:32:00,75.0,17.0,-100.00,ESE,122,3.0,11.0,11,0.00,,,0.00,453.000000,,2013-02-28 00:32:00,
2013-02-27 16:42:00,75.0,17.0,-100.00,ESE,122,3.0,11.0,11,0.00,,,0.00,453.000000,,2013-02-28 00:42:00,
2013-02-27 16:52:00,75.0,17.0,-100.00,ESE,122,3.0,11.0,11,0.00,,,0.00,453.000000,,2013-02-28 00:52:00,
2013-02-27 17:01:00,75.0,17.0,-100.00,ESE,122,3.0,11.0,11,0.00,,,0.00,453.000000,,2013-02-28 01:01:00,
2013-02-27 17:32:00,69.0,18.0,-100.00,WNW,286,5.0,11.0,14,-99.99,,,0.00,224.000000,,2013-02-28 01:32:00,
2013-02-27 17:42:00,69.0,18.0,-100.00,WNW,286,5.0,11.0,14,-99.99,,,0.00,224.000000,,2013-02-28 01:42:00,
2013-02-27 17:52:00,69.0,18.0,-100.00,WNW,286,5.0,11.0,14,-99.99,,,0.00,224.000000,,2013-02-28 01:52:00,
2013-02-27 18:01:00,69.0,18.0,-100.00,WNW,286,5.0,11.0,14,-99.99,,,0.00,224.000000,,2013-02-28 02:01:00,
2013-02-27 18:22:00,56.0,28.0,-100.00,SW,225,3.0,9.0,34,0.00,,,0.00,19.000000,,2013-02-28 02:22:00,
2013-02-27 18:32:00,56.0,28.0,-100.00,SW,225,3.0,9.0,34,0.00,,,0.00,19.000000,,2013-02-28 02:32:00,
2013-02-27 18:42:00,56.0,28.0,-100.00,SW,225,3.0,9.0,34,0.00,,,0.00,19.000000,,2013-02-28 02:42:00,
2013-02-27 18:52:00,56.0,28.0,-100.00,SW,225,3.0,9.0,34,0.00,,,0.00,19.000000,,2013-02-28 02:52:00,
2013-02-27 19:01:00,56.0,28.0,-100.00,SW,225,3.0,9.0,34,0.00,,,0.00,19.000000,,2013-02-28 03:01:00,
2013-02-27 19:32:00,51.0,28.0,-100.00,WSW,242,2.0,4.0,41,0.00,,,0.00,0.000000,,2013-02-28 03:32:00,
2013-02-27 19:42:00,51.0,28.0,-100.00,WSW,242,2.0,4.0,41,0.00,,,0.00,0.000000,,2013-02-28 03:42:00,
2013-02-27 19:52:00,51.0,28.0,-100.00,WSW,242,2.0,4.0,41,0.00,,,0.00,0.000000,,2013-02-28 03:52:00,
2013-02-27 20:01:00,51.0,28.0,-100.00,WSW,242,2.0,4.0,41,0.00,,,0.00,0.000000,,2013-02-28 04:01:00,
2013-02-27 20:22:00,49.0,29.0,-100.00,SW,221,3.0,5.0,46,0.00,,,0.00,0.000000,,2013-02-28 04:22:00,
2013-02-27 20:32:00,49.0,29.0,-100.00,SW,221,3.0,5.0,46,0.00,,,0.00,0.000000,,2013-02-28 04:32:00,
2013-02-27 20:42:00,49.0,29.0,-100.00,SW,221,3.0,5.0,46,0.00,,,0.00,0.000000,,2013-02-28 04:42:00,
2013-02-27 20:52:00,49.0,29.0,-100.00,SW,221,3.0,5.0,46,0.00,,,0.00,0.000000,,2013-02-28 04:52:00,
2013-02-27 21:01:00,49.0,29.0,-100.00,SW,221,3.0,5.0,46,0.00,,,0.00,0.000000,,2013-02-28 05:01:00,
2013-02-27 21:22:00,48.0,29.0,-100.00,SSW,210,3.0,7.0,48,0.00,,,0.00,0.000000,,2013-02-28 05:22:00,
2013-02-27 21:32:00,48.0,29.0,-100.00,SSW,210,3.0,7.0,48,0.00,,,0.00,0.000000,,2013-02-28 05:32:00,
2013-02-27 21:42:00,48.0,29.0,-100.00,SSW,210,3.0,7.0,48,0.00,,,0.00,0.000000,,2013-02-28 05:42:00,
2013-02-27 21:52:00,48.0,29.0,-100.00,SSW,210,3.0,7.0,48,0.00,,,0.00,0.000000,,2013-02-28 05:52:00,
2013-02-27 22:01:00,48.0,29.0,-100.00,SSW,210,3.0,7.0,48,0.00,,,0.00,0.000000,,2013-02-28 06:01:00,
2013-02-27 22:32:00,46.0,29.0,-100.00,SW,230,3.0,8.0,52,0.00,,,0.00,0.000000,,2013-02-28 06:32:00,
2013-02-27 22:42:00,46.0,29.0,-100.00,SW,230,3.0,8.0,52,0.00,,,0.00,0.000000,,2013-02-28 06:42:00,
2013-02-27 22:52:00,46.0,29.0,-100.00,SW,230,3.0,8.0,52,0.00,,,0.00,0.000000,,2013-02-28 06:52:00,
2013-02-27 23:01:00,46.0,29.0,-100.00,SW,230,3.0,8.0,52,0.00,,,0.00,0.000000,,2013-02-28 07:01:00,
2013-02-27 23:22:00,45.0,28.0,-100.00,SSW,211,4.0,7.0,52,0.00,,,0.00,0.000000,,2013-02-28 07:22:00,
2013-02-27 23:32:00,45.0,28.0,-100.00,SSW,211,4.0,7.0,52,0.00,,,0.00,0.000000,,2013-02-28 07:32:00,
2013-02-27 23:42:00,45.0,28.0,-100.00,SSW,211,4.0,7.0,52,0.00,,,0.00,0.000000,,2013-02-28 07:42:00,
2013-02-27 23:52:00,45.0,28.0,-100.00,SSW,211,4.0,7.0,52,0.00,,,0.00,0.000000,,2013-02-28 07:52:00,